Time;durP1;ratioP1;P1;durP2;ratioP2;P2;SDS_P1;SDS_P2;PMS_P1;PMS_P2;Temp;Humidity;BMP_temperature;BMP_pressure;BME280_temperature;BME280_humidity;BME280_pressure;Samples;Min_cycle;Max_cycle;Signal;HPM_P1;HPM_P2
2021/01/31 00:00:48;;;;;;;1.47;1.37;;;;;;;3.59;100.00;98255.33;1695984;84;21006;-77
2021/01/31 00:03:20;;;;;;;1.50;1.40;;;;;;;3.59;100.00;98249.13;1696319;84;21038;-87
2021/01/31 00:05:50;;;;;;;1.62;1.40;;;;;;;3.58;100.00;98241.62;1696332;84;21114;-82
2021/01/31 00:08:19;;;;;;;1.33;1.23;;;;;;;3.59;100.00;98253.13;1696583;84;21022;-83
2021/01/31 00:10:50;;;;;;;1.40;1.30;;;;;;;3.58;100.00;98253.64;1696563;83;21204;-84
2021/01/31 00:13:18;;;;;;;2.43;1.90;;;;;;;3.57;100.00;98246.62;1696667;84;20979;-86
2021/01/31 00:15:49;;;;;;;2.20;1.53;;;;;;;3.57;100.00;98251.14;1696572;84;20955;-86
2021/01/31 00:18:23;;;;;;;2.37;1.70;;;;;;;3.57;100.00;98256.48;1696315;84;21125;-89
2021/01/31 00:20:53;;;;;;;2.67;1.73;;;;;;;3.57;100.00;98244.45;1696487;84;20911;-84
2021/01/31 00:23:21;;;;;;;4.07;1.67;;;;;;;3.55;100.00;98245.13;1696328;84;21379;-88
2021/01/31 00:25:49;;;;;;;4.27;1.93;;;;;;;3.55;100.00;98238.45;1696635;84;20911;-84
2021/01/31 00:28:19;;;;;;;1.37;1.27;;;;;;;3.53;100.00;98239.95;1696255;84;21542;-81
2021/01/31 00:30:48;;;;;;;1.23;1.23;;;;;;;3.52;100.00;98236.11;1767105;80;20929;-82
2021/01/31 00:33:25;;;;;;;1.97;1.83;;;;;;;3.51;100.00;98238.47;1784194;80;20992;-84
2021/01/31 00:35:54;;;;;;;1.80;1.53;;;;;;;3.52;100.00;98230.77;1761909;80;22356;-80
2021/01/31 00:38:23;;;;;;;1.07;1.07;;;;;;;3.52;100.00;98229.43;1761741;80;20965;-83
2021/01/31 00:40:51;;;;;;;2.07;1.20;;;;;;;3.51;100.00;98221.92;1794012;79;20989;-80
2021/01/31 00:43:19;;;;;;;2.50;2.23;;;;;;;3.51;100.00;98230.45;1793613;80;20917;-82
2021/01/31 00:45:49;;;;;;;1.60;1.50;;;;;;;3.50;100.00;98215.41;1793214;79;20969;-82
2021/01/31 00:48:17;;;;;;;0.53;0.53;;;;;;;3.48;100.00;98220.09;1793275;80;21983;-79
2021/01/31 00:50:45;;;;;;;1.40;1.30;;;;;;;3.47;100.00;98217.94;1793574;79;20990;-79
2021/01/31 00:53:18;;;;;;;2.83;1.45;;;;;;;3.46;100.00;98212.25;1793935;80;21453;-81
2021/01/31 00:55:48;;;;;;;2.20;1.63;;;;;;;3.46;100.00;98210.09;1793605;79;20891;-78
2021/01/31 00:58:17;;;;;;;3.53;2.33;;;;;;;3.44;100.00;98206.75;1793508;80;20994;-80
2021/01/31 01:00:47;;;;;;;4.40;2.17;;;;;;;3.41;100.00;98209.25;1793696;78;21378;-81
2021/01/31 01:03:16;;;;;;;1.93;1.30;;;;;;;3.40;100.00;98207.59;1793578;78;20987;-80
2021/01/31 01:05:46;;;;;;;3.30;2.20;;;;;;;3.39;100.00;98200.58;1789693;80;20994;-84
2021/01/31 01:08:14;;;;;;;1.00;1.00;;;;;;;3.38;100.00;98188.20;1793676;80;21543;-79
2021/01/31 01:10:42;;;;;;;1.70;1.43;;;;;;;3.36;100.00;98195.05;1793666;80;20998;-79
2021/01/31 01:13:10;;;;;;;3.20;1.90;;;;;;;3.36;100.00;98195.05;1792684;80;21660;-82
2021/01/31 01:15:37;;;;;;;1.87;1.70;;;;;;;3.37;100.00;98190.05;1793509;80;20971;-81
2021/01/31 01:18:05;;;;;;;1.73;1.63;;;;;;;3.38;100.00;98188.20;1793979;80;20951;-82
2021/01/31 01:20:33;;;;;;;2.67;1.77;;;;;;;3.37;100.00;98183.38;1793987;80;21050;-80
2021/01/31 01:23:02;;;;;;;1.13;1.03;;;;;;;3.39;100.00;98180.02;1793963;80;21468;-84
2021/01/31 01:25:30;;;;;;;1.80;1.57;;;;;;;3.40;100.00;98180.37;1793935;80;21644;-78
2021/01/31 01:27:57;;;;;;;2.67;2.20;;;;;;;3.40;100.00;98184.38;1793699;80;21042;-79
2021/01/31 01:30:29;;;;;;;0.90;0.90;;;;;;;3.37;100.00;98176.70;1793420;80;21014;-85
2021/01/31 01:32:58;;;;;;;1.77;1.23;;;;;;;3.39;100.00;98176.53;1788592;80;20991;-82
2021/01/31 01:35:26;;;;;;;2.97;1.53;;;;;;;3.41;100.00;98174.52;1758734;80;20940;-80
2021/01/31 01:37:54;;;;;;;2.97;1.40;;;;;;;3.41;100.00;98179.86;1772348;80;21367;-82
2021/01/31 01:40:27;;;;;;;4.43;2.50;;;;;;;3.41;100.00;98178.52;1743479;82;20965;-84
2021/01/31 01:42:55;;;;;;;2.40;1.33;;;;;;;3.40;100.00;98165.67;1762543;81;21029;-83
2021/01/31 01:45:23;;;;;;;1.20;1.17;;;;;;;3.41;100.00;98167.84;1730671;81;21620;-78
2021/01/31 01:47:52;;;;;;;1.30;1.20;;;;;;;3.41;100.00;98157.15;1762096;81;20885;-79
2021/01/31 01:50:39;;;;;;;2.67;1.67;;;;;;;3.42;100.00;98157.48;1730679;83;21432;-80
2021/01/31 01:53:08;;;;;;;2.13;1.93;;;;;;;3.41;100.00;98163.31;1762082;81;21091;-80
2021/01/31 01:55:56;;;;;;;1.47;1.20;;;;;;;3.42;100.00;98158.83;1755718;80;20993;-79
2021/01/31 01:58:24;;;;;;;2.20;1.80;;;;;;;3.41;100.00;98153.96;1760688;81;20993;-81
2021/01/31 02:00:52;;;;;;;1.50;1.20;;;;;;;3.42;100.00;98146.30;1745871;81;20994;-82
2021/01/31 02:03:23;;;;;;;2.47;2.13;;;;;;;3.41;100.00;98140.61;1760927;81;21675;-83
2021/01/31 02:06:00;;;;;;;2.30;2.10;;;;;;;3.42;100.00;98144.95;1760787;81;20953;-77
2021/01/31 02:08:35;;;;;;;2.10;1.60;;;;;;;3.45;100.00;98141.09;1852273;76;26338;-81
2021/01/31 02:11:03;;;;;;;3.03;1.77;;;;;;;3.42;100.00;98147.63;1782919;80;20932;-78
2021/01/31 02:13:31;;;;;;;1.70;1.20;;;;;;;3.42;100.00;98153.48;1855509;77;22203;-78
2021/01/31 02:15:59;;;;;;;2.17;1.97;;;;;;;3.43;100.00;98155.13;1855412;77;20977;-78
2021/01/31 02:18:37;;;;;;;2.40;1.80;;;;;;;3.44;100.00;98154.66;1823164;77;21008;-79
2021/01/31 02:21:11;;;;;;;2.97;2.27;;;;;;;3.45;100.00;98150.45;1855626;77;21320;-79
2021/01/31 02:23:59;;;;;;;2.50;2.27;;;;;;;3.44;100.00;98150.13;1854888;77;20953;-79
2021/01/31 02:26:53;;;;;;;3.87;2.47;;;;;;;3.45;100.00;98153.11;1850399;77;21946;-79
2021/01/31 02:29:55;;;;;;;1.00;1.00;;;;;;;3.48;100.00;98151.95;1852309;76;26544;-78
2021/01/31 02:33:05;;;;;;;2.53;1.37;;;;;;;3.46;100.00;98161.48;1783013;80;20998;-78
2021/01/31 02:35:35;;;;;;;1.43;1.33;;;;;;;3.48;100.00;98159.97;1822026;78;22260;-78
2021/01/31 02:38:17;;;;;;;1.07;0.93;;;;;;;3.50;100.00;98163.30;1821933;77;20945;-79
2021/01/31 02:41:02;;;;;;;2.80;1.97;;;;;;;3.51;100.00;98167.14;1820229;78;20927;-81
2021/01/31 02:43:44;;;;;;;2.60;1.50;;;;;;;3.50;100.00;98171.31;1822035;78;21203;-79
2021/01/31 02:46:33;;;;;;;4.63;1.50;;;;;;;3.51;100.00;98175.67;1821970;78;21155;-78
2021/01/31 02:49:15;;;;;;;2.60;1.73;;;;;;;3.49;100.00;98182.52;1821907;78;21043;-77
2021/01/31 02:51:52;;;;;;;4.35;2.05;;;;;;;3.51;100.00;98182.35;1823422;78;20994;-79
2021/01/31 02:54:43;;;;;;;1.40;1.03;;;;;;;3.50;100.00;98184.68;1822028;78;21476;-80
2021/01/31 02:57:15;;;;;;;1.33;1.23;;;;;;;3.51;100.00;98195.20;1822040;78;21046;-78
2021/01/31 03:00:10;;;;;;;1.45;1.35;;;;;;;3.51;100.00;98192.53;1726395;82;21032;-78
2021/01/31 03:02:56;;;;;;;1.50;1.40;;;;;;;3.53;100.00;98186.50;1750994;82;20972;-80
2021/01/31 03:05:41;;;;;;;1.87;1.53;;;;;;;3.56;100.00;98183.50;1890357;76;26550;-79
2021/01/31 03:08:19;;;;;;;2.70;2.20;;;;;;;3.55;100.00;98189.84;1809373;79;20925;-79
2021/01/31 03:10:53;;;;;;;4.90;2.20;;;;;;;3.57;100.00;98200.36;1809514;79;22242;-79
2021/01/31 03:13:47;;;;;;;4.23;2.47;;;;;;;3.58;100.00;98202.04;1809426;79;21491;-77
2021/01/31 03:16:23;;;;;;;4.17;2.23;;;;;;;3.59;100.00;98205.03;1742999;82;20952;-81
2021/01/31 03:19:12;;;;;;;2.80;2.03;;;;;;;3.63;100.00;98208.19;1845797;76;26838;-81
2021/01/31 03:21:40;;;;;;;2.90;1.93;;;;;;;3.59;100.00;98212.56;1815294;77;21024;-78
2021/01/31 03:24:45;;;;;;;1.77;1.67;;;;;;;3.60;100.00;98203.52;1798204;78;21180;-78
2021/01/31 03:27:24;;;;;;;2.00;1.53;;;;;;;3.60;100.00;98205.37;1815588;79;21016;-78
2021/01/31 03:29:52;;;;;;;2.97;2.23;;;;;;;3.58;100.00;98200.19;1768896;79;21000;-76
2021/01/31 03:32:30;;;;;;;3.60;2.30;;;;;;;3.59;100.00;98206.36;1815557;79;21739;-77
2021/01/31 03:35:05;;;;;;;4.17;2.23;;;;;;;3.60;100.00;98215.55;1777475;80;20958;-79
2021/01/31 03:37:44;;;;;;;4.27;2.73;;;;;;;3.60;100.00;98212.88;1777449;80;21193;-78
2021/01/31 03:40:23;;;;;;;8.05;3.52;;;;;;;3.65;100.00;98203.50;1829504;76;27786;-75
2021/01/31 03:42:53;;;;;;;6.05;2.85;;;;;;;3.64;100.00;98212.03;1816713;78;21367;-78
2021/01/31 03:45:46;;;;;;;8.10;2.77;;;;;;;3.69;100.00;98210.19;1816727;78;21189;-78
2021/01/31 03:48:18;;;;;;;5.30;2.37;;;;;;;3.68;100.00;98217.36;1812285;79;20940;-76
2021/01/31 03:50:47;;;;;;;3.87;2.15;;;;;;;3.67;100.00;98210.36;1729685;81;20901;-79
2021/01/31 03:53:14;;;;;;;2.97;1.70;;;;;;;3.67;100.00;98204.19;1729544;83;21032;-79
2021/01/31 03:55:43;;;;;;;7.60;3.07;;;;;;;3.68;100.00;98209.84;1728958;83;21060;-78
2021/01/31 03:58:13;;;;;;;5.13;3.10;;;;;;;3.69;100.00;98212.35;1728332;83;21442;-77
2021/01/31 04:00:51;;;;;;;3.60;2.10;;;;;;;3.69;100.00;98208.85;1728612;83;20972;-77
2021/01/31 04:04:17;;;;;;;2.57;2.37;;;;;;;3.72;100.00;98200.47;1890303;76;26988;-78
2021/01/31 04:06:51;;;;;;;6.23;2.47;;;;;;;3.70;100.00;98207.34;1752742;80;21061;-77
2021/01/31 04:09:19;;;;;;;4.53;2.57;;;;;;;3.71;100.00;98208.17;1755430;81;21340;-77
2021/01/31 04:11:47;;;;;;;3.77;2.20;;;;;;;3.74;100.00;98213.19;1732876;81;20989;-78
2021/01/31 04:14:32;;;;;;;2.67;1.90;;;;;;;3.74;100.00;98206.50;1751128;80;20977;-79
2021/01/31 04:17:07;;;;;;;4.30;2.67;;;;;;;3.78;100.00;98211.31;1889523;76;26889;-78
2021/01/31 04:19:35;;;;;;;5.57;2.27;;;;;;;3.77;100.00;98206.98;1860883;77;20907;-77
2021/01/31 04:22:02;;;;;;;3.93;3.00;;;;;;;3.78;100.00;98205.14;1861189;77;21120;-79
2021/01/31 04:24:30;;;;;;;5.67;3.47;;;;;;;3.80;100.00;98206.62;1861128;77;21034;-77
2021/01/31 04:26:58;;;;;;;3.67;2.73;;;;;;;3.80;100.00;98211.14;1861327;77;21309;-79
2021/01/31 04:29:26;;;;;;;8.53;3.00;;;;;;;3.81;100.00;98212.83;1861253;77;20911;-78
2021/01/31 04:31:53;;;;;;;4.73;2.67;;;;;;;3.82;100.00;98214.98;1861306;77;20998;-80
2021/01/31 04:34:21;;;;;;;6.87;3.40;;;;;;;3.83;100.00;98210.81;1839085;77;21184;-80
2021/01/31 04:36:49;;;;;;;8.53;4.03;;;;;;;3.84;100.00;98204.44;1765517;81;21005;-80
2021/01/31 04:39:17;;;;;;;9.87;4.33;;;;;;;3.85;100.00;98207.45;1781395;79;20954;-77
2021/01/31 04:41:46;;;;;;;7.37;4.63;;;;;;;3.86;100.00;98210.47;1782421;80;21458;-77
2021/01/31 04:44:17;;;;;;;7.17;4.33;;;;;;;3.87;100.00;98203.27;1782515;80;21301;-77
2021/01/31 04:46:55;;;;;;;5.37;3.23;;;;;;;3.89;100.00;98203.93;1782366;80;21186;-77
2021/01/31 04:49:48;;;;;;;6.27;3.47;;;;;;;3.88;100.00;98216.47;1698169;82;20964;-79
2021/01/31 04:52:44;;;;;;;6.93;3.60;;;;;;;3.88;100.00;98222.30;1774017;80;21499;-77
2021/01/31 04:55:24;;;;;;;4.00;2.73;;;;;;;3.88;100.00;98224.50;1713653;83;21023;-76
2021/01/31 04:58:06;;;;;;;5.47;3.00;;;;;;;3.87;100.00;98226.83;1772630;80;21582;-77
2021/01/31 05:00:36;;;;;;;4.33;2.27;;;;;;;3.87;100.00;98241.53;1777488;80;21564;-79
2021/01/31 05:03:04;;;;;;;3.33;2.37;;;;;;;3.86;100.00;98255.06;1778917;80;20993;-79
2021/01/31 05:05:37;;;;;;;3.67;2.70;;;;;;;3.84;100.00;98262.44;1752443;80;21013;-77
2021/01/31 05:08:09;;;;;;;4.47;2.60;;;;;;;3.83;100.00;98292.87;1777780;80;20946;-76
2021/01/31 05:10:38;;;;;;;3.20;1.90;;;;;;;3.84;100.00;98307.38;1777718;80;20954;-80
2021/01/31 05:13:27;;;;;;;5.97;2.77;;;;;;;3.83;100.00;98307.57;1777473;80;22155;-78
2021/01/31 05:16:10;;;;;;;4.13;2.43;;;;;;;3.80;100.00;98312.23;1777391;80;20969;-80
2021/01/31 05:18:46;;;;;;;4.80;2.90;;;;;;;3.81;100.00;98322.44;1777513;80;21049;-77
2021/01/31 05:21:26;;;;;;;3.20;2.40;;;;;;;3.82;100.00;98300.03;1845501;76;27004;-78
2021/01/31 05:24:06;;;;;;;2.53;2.33;;;;;;;3.80;100.00;98335.47;1816060;78;21079;-80
2021/01/31 05:26:43;;;;;;;2.30;2.10;;;;;;;3.79;100.00;98332.48;1815829;77;22494;-77
2021/01/31 05:29:16;;;;;;;4.27;2.63;;;;;;;3.80;100.00;98339.48;1815813;79;21517;-76
2021/01/31 05:31:52;;;;;;;;;;;;;;;3.78;100.00;98326.27;1818477;78;21011;-81
2021/01/31 05:34:43;;;;;;;3.33;2.57;;;;;;;3.79;100.00;98335.15;1845828;77;20124;-78
2021/01/31 05:37:17;;;;;;;3.67;2.40;;;;;;;3.76;100.00;98337.64;1810753;79;21365;-78
2021/01/31 05:40:00;;;;;;;4.47;2.93;;;;;;;3.79;100.00;98333.81;1910492;75;26623;-82
2021/01/31 05:42:30;;;;;;;6.43;3.70;;;;;;;3.74;100.00;98338.32;1791320;80;20990;-77
2021/01/31 05:45:13;;;;;;;6.60;3.03;;;;;;;3.75;100.00;98355.19;1823799;78;21898;-82
2021/01/31 05:47:42;;;;;;;7.87;4.20;;;;;;;3.73;100.00;98356.69;1790629;80;20946;-77
2021/01/31 05:50:37;;;;;;;6.17;3.50;;;;;;;3.71;100.00;98349.85;1823753;78;20953;-77
2021/01/31 05:53:37;;;;;;;4.47;2.93;;;;;;;3.72;100.00;98382.25;1791482;80;20974;-77
2021/01/31 05:56:29;;;;;;;6.33;3.57;;;;;;;3.72;100.00;98387.59;1814930;78;20993;-77
2021/01/31 05:59:08;;;;;;;7.87;3.80;;;;;;;3.71;100.00;98394.78;1761749;80;22311;-78
2021/01/31 06:02:01;;;;;;;7.93;4.00;;;;;;;3.71;100.00;98396.63;1811822;79;20962;-74
2021/01/31 06:04:29;;;;;;;6.37;3.30;;;;;;;3.70;100.00;98408.31;1791055;80;20953;-77
2021/01/31 06:07:08;;;;;;;6.97;3.77;;;;;;;3.68;100.00;98403.64;1811969;79;21589;-78
2021/01/31 06:09:42;;;;;;;7.23;4.30;;;;;;;3.68;100.00;98418.34;1791137;80;21534;-77
2021/01/31 06:12:23;;;;;;;6.60;3.83;;;;;;;3.64;100.00;98411.67;1811996;79;21138;-78
2021/01/31 06:15:07;;;;;;;5.77;3.53;;;;;;;3.59;100.00;98414.35;1790976;80;21092;-77
2021/01/31 06:17:35;;;;;;;11.97;4.97;;;;;;;3.55;100.00;98404.97;1811995;79;21030;-77
2021/01/31 06:20:11;;;;;;;14.67;5.57;;;;;;;3.49;100.00;98431.52;1791054;80;20942;-78
2021/01/31 06:22:47;;;;;;;9.73;4.63;;;;;;;3.37;100.00;98443.05;1811903;79;20914;-76
2021/01/31 06:25:34;;;;;;;9.17;5.10;;;;;;;3.32;100.00;98438.69;1845789;76;27066;-76
2021/01/31 06:28:13;;;;;;;10.70;5.33;;;;;;;3.25;100.00;98456.38;1815702;77;20932;-78
2021/01/31 06:30:53;;;;;;;11.23;5.40;;;;;;;3.17;100.00;98459.36;1815819;79;21363;-77
2021/01/31 06:33:21;;;;;;;11.03;5.07;;;;;;;3.11;100.00;98467.17;1815556;79;20944;-78
2021/01/31 06:36:00;;;;;;;12.90;4.47;;;;;;;3.05;100.00;98466.00;1815753;79;20984;-76
2021/01/31 06:38:36;;;;;;;11.60;5.30;;;;;;;3.00;100.00;98469.14;1750238;79;21028;-77
2021/01/31 06:41:52;;;;;;;10.40;5.43;;;;;;;3.02;100.00;98474.32;1845298;76;26484;-78
2021/01/31 06:44:44;;;;;;;10.07;4.50;;;;;;;2.97;100.00;98477.46;1815612;79;20968;-77
2021/01/31 06:47:24;;;;;;;10.73;5.33;;;;;;;2.95;100.00;98474.63;1811475;79;21477;-78
2021/01/31 06:50:30;;;;;;;8.43;4.87;;;;;;;2.90;100.00;98480.95;1810048;79;20995;-77
2021/01/31 06:53:15;;;;;;;8.27;4.40;;;;;;;2.85;100.00;98491.62;1745233;81;21495;-77
2021/01/31 06:56:18;;;;;;;7.77;3.83;;;;;;;2.81;100.00;98494.25;1744779;82;20958;-76
2021/01/31 06:58:54;;;;;;;10.17;4.37;;;;;;;2.81;100.00;98496.09;1745210;82;21586;-77
2021/01/31 07:01:27;;;;;;;11.83;4.63;;;;;;;2.80;100.00;98491.77;1741587;82;22120;-77
2021/01/31 07:04:19;;;;;;;8.93;4.23;;;;;;;2.78;100.00;98505.73;1745212;82;21582;-77
2021/01/31 07:07:21;;;;;;;6.47;3.47;;;;;;;2.77;100.00;98511.59;1745108;82;21022;-77
2021/01/31 07:10:11;;;;;;;7.67;4.10;;;;;;;2.78;100.00;98533.30;1845764;76;26968;-77
2021/01/31 07:12:57;;;;;;;7.93;4.30;;;;;;;2.71;100.00;98534.92;1729035;81;21478;-76
2021/01/31 07:16:21;;;;;;;6.57;3.90;;;;;;;2.65;100.00;98531.03;1845755;76;26623;-77
2021/01/31 07:19:03;;;;;;;6.93;3.93;;;;;;;2.56;100.00;98537.82;1728825;81;21028;-78
2021/01/31 07:21:55;;;;;;;11.10;4.90;;;;;;;2.51;100.00;98553.45;1845754;76;26563;-77
2021/01/31 07:24:38;;;;;;;6.20;3.50;;;;;;;2.43;100.00;98575.08;1815736;77;20996;-78
2021/01/31 07:27:17;;;;;;;6.53;3.80;;;;;;;2.35;100.00;98583.52;1768156;81;21132;-77
2021/01/31 07:30:21;;;;;;;7.40;4.10;;;;;;;2.29;100.00;98582.31;1754411;81;20970;-76
2021/01/31 07:33:05;;;;;;;8.00;3.90;;;;;;;2.23;100.00;98578.91;1703041;84;20966;-77
2021/01/31 07:35:54;;;;;;;6.37;4.07;;;;;;;2.17;100.00;98586.20;1732128;82;21012;-76
2021/01/31 07:38:48;;;;;;;7.77;4.00;;;;;;;2.13;100.00;98589.67;1726380;82;21017;-77
2021/01/31 07:41:24;;;;;;;7.73;3.87;;;;;;;2.13;100.00;98605.67;1845486;76;27016;-76
2021/01/31 07:43:55;;;;;;;9.83;4.97;;;;;;;2.04;100.00;98616.75;1815679;78;20933;-75
2021/01/31 07:46:23;;;;;;;6.90;3.40;;;;;;;1.96;100.00;98610.49;1815598;79;21193;-77
2021/01/31 07:48:58;;;;;;;13.43;5.80;;;;;;;1.92;100.00;98628.62;1815608;79;20933;-77
2021/01/31 07:51:36;;;;;;;10.07;3.97;;;;;;;1.88;100.00;98634.75;1815662;77;21028;-76
2021/01/31 07:54:23;;;;;;;10.97;4.70;;;;;;;1.84;100.00;98645.37;1811623;79;20929;-76
2021/01/31 07:56:53;;;;;;;17.20;6.67;;;;;;;1.84;100.00;98647.17;1815664;78;20881;-76
2021/01/31 07:59:28;;;;;;;8.57;3.97;;;;;;;1.81;100.00;98644.83;1815776;77;21291;-75
2021/01/31 08:01:57;;;;;;;5.57;3.57;;;;;;;1.79;100.00;98646.31;1815234;79;21036;-79
2021/01/31 08:04:37;;;;;;;12.93;5.57;;;;;;;1.81;100.00;98647.00;1815510;79;21004;-76
2021/01/31 08:07:06;;;;;;;9.87;5.33;;;;;;;1.79;100.00;98663.64;1813522;77;21481;-77
2021/01/31 08:09:40;;;;;;;9.63;4.30;;;;;;;1.73;100.00;98666.87;1815819;77;21028;-77
2021/01/31 08:12:11;;;;;;;9.70;4.50;;;;;;;1.65;100.00;98684.12;1815767;79;21735;-75
2021/01/31 08:15:14;;;;;;;12.00;5.80;;;;;;;1.60;100.00;98694.38;1815766;77;20952;-76
2021/01/31 08:17:57;;;;;;;14.83;5.83;;;;;;;1.58;100.00;98697.19;1784905;79;20936;-76
2021/01/31 08:20:36;;;;;;;8.63;5.00;;;;;;;1.58;100.00;98711.01;1813108;78;21314;-76
2021/01/31 08:23:12;;;;;;;8.97;4.60;;;;;;;1.57;100.00;98717.30;1811782;79;21493;-78
2021/01/31 08:26:01;;;;;;;7.80;4.50;;;;;;;1.49;100.00;98712.72;1813387;79;21198;-78
2021/01/31 08:28:36;;;;;;;7.57;3.53;;;;;;;1.44;100.00;98714.48;1815694;79;21003;-77
2021/01/31 08:31:14;;;;;;;6.17;3.77;;;;;;;1.41;100.00;98713.92;1785587;79;20945;-77
2021/01/31 08:33:45;;;;;;;5.20;3.47;;;;;;;1.35;100.00;98738.46;1807190;79;20944;-77
2021/01/31 08:36:25;;;;;;;7.07;3.53;;;;;;;1.28;100.00;98756.36;1704400;83;20949;-77
2021/01/31 08:38:54;;;;;;;8.13;3.90;;;;;;;1.24;100.00;98760.30;1736987;81;21265;-79
2021/01/31 08:41:39;;;;;;;10.03;5.30;;;;;;;1.20;100.00;98754.06;1759146;81;20933;-77
2021/01/31 08:44:16;;;;;;;11.17;4.80;;;;;;;1.18;100.00;98770.67;1760189;81;20995;-77
2021/01/31 08:47:01;;;;;;;10.10;4.93;;;;;;;1.15;100.00;98782.44;1760055;81;20929;-76
2021/01/31 08:49:29;;;;;;;8.13;4.23;;;;;;;1.12;100.00;98786.23;1760254;81;20981;-77
2021/01/31 08:52:08;;;;;;;8.90;4.30;;;;;;;1.03;100.00;98799.06;1759515;81;21342;-78
2021/01/31 08:54:35;;;;;;;11.67;5.00;;;;;;;1.08;100.00;98795.50;1756094;81;21044;-77
2021/01/31 08:57:12;;;;;;;6.83;4.13;;;;;;;1.23;100.00;98804.37;1759198;81;21434;-77
2021/01/31 08:59:46;;;;;;;9.57;4.90;;;;;;;1.24;100.00;98805.58;1756144;80;20956;-78
2021/01/31 09:02:25;;;;;;;13.80;6.27;;;;;;;1.19;100.00;98805.63;1890597;75;27278;-77
2021/01/31 09:05:00;;;;;;;9.23;4.67;;;;;;;1.16;100.00;98813.92;1812271;78;21029;-78
2021/01/31 09:07:35;;;;;;;16.00;6.07;;;;;;;1.10;100.00;98812.66;1812237;79;21366;-77
2021/01/31 09:10:25;;;;;;;11.73;5.80;;;;;;;1.01;100.00;98830.31;1812014;79;21522;-78
2021/01/31 09:13:15;;;;;;;14.77;5.77;;;;;;;0.95;100.00;98832.19;1812298;79;21040;-78
2021/01/31 09:15:43;;;;;;;10.73;5.10;;;;;;;0.89;100.00;98832.27;1812360;78;21021;-78
2021/01/31 09:18:19;;;;;;;10.43;4.90;;;;;;;0.80;100.00;98837.56;1812341;79;21017;-77
2021/01/31 09:20:48;;;;;;;14.17;6.07;;;;;;;0.73;100.00;98839.45;1812337;79;21370;-77
2021/01/31 09:23:30;;;;;;;16.97;7.23;;;;;;;0.66;100.00;98854.78;1812077;79;20985;-77
2021/01/31 09:26:07;;;;;;;11.80;6.50;;;;;;;0.64;100.00;98856.25;1846489;76;26619;-77
2021/01/31 09:28:35;;;;;;;16.07;7.63;;;;;;;0.56;100.00;98870.71;1815852;79;21012;-76
2021/01/31 09:31:03;;;;;;;18.03;6.87;;;;;;;0.46;100.00;98868.04;1806045;79;22556;-76
2021/01/31 09:33:40;;;;;;;12.10;5.77;;;;;;;0.41;100.00;98882.23;1811460;79;21060;-77
2021/01/31 09:36:21;;;;;;;12.77;5.73;;;;;;;0.32;100.00;98884.34;1827646;78;21036;-78
2021/01/31 09:38:58;;;;;;;15.73;7.27;;;;;;;0.24;100.00;98896.98;1842886;75;26847;-76
2021/01/31 09:41:28;;;;;;;11.97;5.87;;;;;;;0.16;100.00;98906.09;1794833;79;20912;-75
2021/01/31 09:44:05;;;;;;;13.53;6.67;;;;;;;0.13;100.00;98913.03;1799864;78;21176;-74
2021/01/31 09:46:34;;;;;;;10.87;5.47;;;;;;;0.17;100.00;98911.78;1799897;79;21565;-76
2021/01/31 09:49:19;;;;;;;13.63;6.77;;;;;;;0.24;100.00;98920.91;1800073;78;21517;-75
2021/01/31 09:51:49;;;;;;;15.37;7.30;;;;;;;0.30;100.00;98922.19;1778691;79;21037;-75
2021/01/31 09:54:19;;;;;;;15.30;6.63;;;;;;;0.38;100.00;98927.70;1811859;78;20993;-76
2021/01/31 09:56:55;;;;;;;11.63;6.23;;;;;;;0.48;100.00;98934.37;1735367;82;21209;-76
2021/01/31 09:59:36;;;;;;;12.67;6.07;;;;;;;0.51;100.00;98942.95;1765753;81;21021;-75
2021/01/31 10:02:16;;;;;;;15.53;7.37;;;;;;;0.55;100.00;98951.02;1704541;84;21108;-76
2021/01/31 10:04:44;;;;;;;14.77;6.23;;;;;;;0.71;100.00;98945.19;1719691;83;21133;-76
2021/01/31 10:07:14;;;;;;;10.43;5.03;;;;;;;0.92;100.00;98965.08;1666448;85;21033;-75
2021/01/31 10:09:50;;;;;;;11.73;5.67;;;;;;;1.16;100.00;98971.02;1699989;84;21420;-76
2021/01/31 10:12:30;;;;;;;14.07;6.97;;;;;;;1.33;100.00;98979.17;1716311;83;21022;-77
2021/01/31 10:15:05;;;;;;;11.23;5.23;;;;;;;1.39;100.00;98981.77;1699954;84;21001;-76
2021/01/31 10:17:43;;;;;;;13.50;6.07;;;;;;;1.41;100.00;98990.45;1684014;83;21052;-76
2021/01/31 10:20:34;;;;;;;13.77;5.47;;;;;;;1.51;100.00;98981.98;1850650;76;27244;-77
2021/01/31 10:23:08;;;;;;;11.43;5.20;;;;;;;1.49;100.00;98999.11;1781541;80;21078;-76
2021/01/31 10:25:40;;;;;;;10.87;5.03;;;;;;;1.58;100.00;98992.11;1835463;77;22139;-76
2021/01/31 10:28:10;;;;;;;9.57;4.97;;;;;;;1.74;100.00;98991.05;1783269;79;21041;-77
2021/01/31 10:30:47;;;;;;;12.33;6.77;;;;;;;1.87;100.00;98999.59;1837300;78;20985;-76
2021/01/31 10:33:46;;;;;;;12.17;6.40;;;;;;;1.93;100.00;99006.67;1837485;78;20994;-77
2021/01/31 10:36:42;;;;;;;15.03;6.60;;;;;;;2.11;100.00;99019.66;1838682;78;21566;-77
2021/01/31 10:39:15;;;;;;;14.93;7.30;;;;;;;2.24;100.00;99020.19;1829542;77;21805;-77
2021/01/31 10:41:45;;;;;;;12.73;5.53;;;;;;;2.20;100.00;99024.64;1821760;78;21617;-76
2021/01/31 10:44:21;;;;;;;9.97;5.90;;;;;;;1.93;100.00;99030.67;1821652;78;21001;-77
2021/01/31 10:46:48;;;;;;;12.27;5.97;;;;;;;1.61;100.00;99031.30;1820312;78;21028;-76
2021/01/31 10:49:16;;;;;;;13.13;6.50;;;;;;;1.33;100.00;99032.44;1820662;78;21594;-77
2021/01/31 10:51:44;;;;;;;10.27;5.13;;;;;;;1.10;100.00;99046.47;1820412;78;22241;-75
2021/01/31 10:54:13;;;;;;;13.33;6.30;;;;;;;0.93;100.00;99049.26;1820540;78;21056;-77
2021/01/31 10:56:41;;;;;;;10.97;5.67;;;;;;;0.90;100.00;99061.99;1820530;78;21028;-76
2021/01/31 10:59:09;;;;;;;14.67;6.90;;;;;;;0.86;100.00;99064.58;1821727;78;20934;-76
2021/01/31 11:01:45;;;;;;;17.53;7.87;;;;;;;0.93;100.00;99066.56;1821785;78;20973;-76
2021/01/31 11:04:15;;;;;;;12.90;5.73;;;;;;;1.11;100.00;99061.94;1783212;80;21162;-76
2021/01/31 11:06:47;;;;;;;14.03;6.77;;;;;;;1.21;100.00;99068.64;1783442;80;21053;-75
2021/01/31 11:09:16;;;;;;;15.83;6.30;;;;;;;1.26;100.00;99071.75;1783530;80;21156;-77
2021/01/31 11:11:44;;;;;;;13.33;5.60;;;;;;;1.24;100.00;99073.68;1783422;80;21115;-75
2021/01/31 11:14:12;;;;;;;12.03;5.63;;;;;;;1.19;100.00;99083.42;1783534;80;21009;-76
2021/01/31 11:16:41;;;;;;;12.37;5.00;;;;;;;1.05;100.00;99105.09;1783351;80;21229;-76
2021/01/31 11:19:09;;;;;;;9.90;5.00;;;;;;;0.95;100.00;99113.02;1783451;80;21072;-75
2021/01/31 11:21:37;;;;;;;9.93;5.30;;;;;;;0.88;100.00;99127.33;1784017;80;21108;-75
2021/01/31 11:24:06;;;;;;;8.40;4.87;;;;;;;0.81;100.00;99133.32;1783951;80;21152;-75
2021/01/31 11:26:34;;;;;;;9.87;5.10;;;;;;;0.74;100.00;99138.31;1784795;80;21009;-76
2021/01/31 11:29:02;;;;;;;6.47;4.40;;;;;;;0.69;100.00;99135.20;1795428;80;22132;-77
2021/01/31 11:31:30;;;;;;;8.47;4.03;;;;;;;0.66;100.00;99144.80;1794732;80;21827;-76
2021/01/31 11:33:58;;;;;;;8.40;4.10;;;;;;;0.54;100.00;99151.48;1794860;80;21226;-77
2021/01/31 11:36:26;;;;;;;8.77;4.27;;;;;;;0.45;100.00;99159.41;1795142;80;20949;-75
2021/01/31 11:38:54;;;;;;;9.50;5.00;;;;;;;0.41;100.00;99164.61;1803519;78;21008;-75
2021/01/31 11:41:22;;;;;;;7.43;4.33;;;;;;;0.34;100.00;99172.27;1815548;79;21191;-76
2021/01/31 11:43:50;;;;;;;7.77;3.73;;;;;;;0.31;100.00;99175.18;1789377;79;20997;-76
2021/01/31 11:46:19;;;;;;;6.37;3.67;;;;;;;0.29;100.00;99167.82;1788691;80;21199;-76
2021/01/31 11:48:47;;;;;;;14.43;5.87;;;;;;;0.35;100.00;99174.81;1788691;80;20974;-76
2021/01/31 11:51:14;;;;;;;11.03;5.63;;;;;;;0.51;100.00;99185.48;1788787;80;20981;-76
2021/01/31 11:53:44;;;;;;;6.80;4.00;;;;;;;0.67;100.00;99191.20;1788872;80;21345;-75
2021/01/31 11:56:12;;;;;;;5.43;2.97;;;;;;;0.87;100.00;99198.86;1788689;80;21016;-76
2021/01/31 11:58:40;;;;;;;6.83;3.27;;;;;;;0.99;100.00;99205.44;1788645;80;21056;-75
2021/01/31 12:01:14;;;;;;;6.37;2.77;;;;;;;1.00;100.00;99196.48;1803831;79;20929;-75
2021/01/31 12:03:44;;;;;;;9.73;3.87;;;;;;;0.97;100.00;99200.73;1813963;79;20972;-75
2021/01/31 12:06:13;;;;;;;6.33;3.57;;;;;;;0.84;100.00;99209.75;1813935;79;21361;-76
2021/01/31 12:08:40;;;;;;;6.30;2.83;;;;;;;0.72;100.00;99216.94;1813699;79;21028;-78
2021/01/31 12:11:09;;;;;;;5.00;2.93;;;;;;;0.59;100.00;99229.59;1813828;79;20958;-76
2021/01/31 12:13:37;;;;;;;5.77;3.77;;;;;;;0.48;100.00;99233.15;1813863;79;20949;-77